Two Rivers, AR

1:35 PM CDT on July 02, 2015 (GMT -0500)
Maumelle | | Change Station
CLOSE
Current Station
Personal Weather Station
Location: Maumelle, AR
Elevation: 305 ft
Nearby Weather Stations

Elev 305 ft 34.84 °N, 92.41 °W | Updated 9 seconds ago

Partly Cloudy
Partly Cloudy
87.4 °F
Feels Like 91 °F
N
0.9
Wind Variable Wind from SSE
Gusts 2.5 mph

Today
High -- | Low -- °F
--% Chance of Precip.
Yesterday
High -- | Low -- °F
Precip. -- in
6:00 AM 8:27 PM
Waxing Gibbous, 99% visible
Pressure 29.90 in
Visibility 10.0 miles
Clouds Few 4600 ft
Scattered Clouds 15000 ft
Scattered Clouds 25000 ft
Heat Index 91 °F
Dew Point 68 °F
Humidity 53%
Rainfall 0.00 in
Snow Depth Not available.
UV 2.0 out of 12
Pollen 4.80 out of 12
Air Quality Not available.
Flu Activity Not available.
METAR KLIT 021753Z 22013KT 10SM FEW046 SCT150 SCT250 31/19 A2990 RMK AO2 PK WND 23026/1716 SLPNO T03110194 10311 20250 56013

More Conditions Fewer Conditions

Pressure 29.90 in
Visibility 10.0 miles
Clouds Few 4600 ft
Scattered Clouds 15000 ft
Scattered Clouds 25000 ft
Heat Index 91 °F
Dew Point 68 °F
Humidity 53%
Rainfall 0.00 in
Snow Depth Not available.
UV 2.0 out of 12
Pollen 4.80 out of 12
Air Quality Not available.
Flu Activity Not available.
METAR KLIT 021753Z 22013KT 10SM FEW046 SCT150 SCT250 31/19 A2990 RMK AO2 PK WND 23026/1716 SLPNO T03110194 10311 20250 56013

More Conditions Fewer Conditions

10-Day Weather Forecast

×

Almanac

Astronomy

Jul. 02, 2015 Rise Set
Actual Time
Civil Twilight
Nautical Twilight
Astronomical Twilight
Moon
Length of Visible Light
Length of Day
Tomorrow will be .
, % of the Moon is Illuminated

Today's Extremes

State Highs State Lows

Community

WunderPhotos

Upload Photos

1,834,514 photos uploaded!

WunderBlogs® & News

Nearby

Air Quality

  Air Quality AQ Index Pollutant
Not available.

Snow Depth

Station Depth Elevation

Earthquake Activity

City Distance Mag. Time & Date
Minimum magnitude displayed is 2.5.

Coastal Water Temperatures

Place Temperature

Stations

Nearby Weather Stations

Station Location Temp. Windchill Dew Point Humidity Wind Precip. Elev Updated Type